createdAt,value
2022-08-20T00:00:10.638Z,28.63
2022-08-20T00:00:41.210Z,27.93
2022-08-20T00:01:11.769Z,28.20
2022-08-20T00:01:42.387Z,28.31
2022-08-20T00:02:13.036Z,27.66
2022-08-20T00:02:43.607Z,27.66
2022-08-20T00:03:14.184Z,27.82
2022-08-20T00:03:50.194Z,28.79
2022-08-20T00:04:15.534Z,27.82
2022-08-20T00:04:46.109Z,27.77
2022-08-20T00:05:16.689Z,28.95
2022-08-20T00:05:47.298Z,27.71
2022-08-20T00:06:17.863Z,28.20
2022-08-20T00:06:48.421Z,28.09
2022-08-20T00:07:18.993Z,27.71
2022-08-20T00:07:49.598Z,28.95
2022-08-20T00:08:20.155Z,28.36
2022-08-20T00:08:50.753Z,27.88
2022-08-20T00:09:21.318Z,28.36
2022-08-20T00:09:51.898Z,28.41
2022-08-20T00:10:22.468Z,27.88
2022-08-20T00:10:55.589Z,27.61
2022-08-20T00:11:24.068Z,28.36
2022-08-20T00:11:54.604Z,28.14
2022-08-20T00:12:25.175Z,27.29
2022-08-20T00:12:55.739Z,28.04
2022-08-20T00:13:26.308Z,28.31
2022-08-20T00:13:56.894Z,28.41
2022-08-20T00:14:27.429Z,28.41
2022-08-20T00:14:58.224Z,27.66
2022-08-20T00:15:28.796Z,27.61
2022-08-20T00:15:59.369Z,27.82
2022-08-20T00:16:29.968Z,28.04
2022-08-20T00:17:00.529Z,28.09
2022-08-20T00:17:31.115Z,28.41
2022-08-20T00:18:01.659Z,27.61
2022-08-20T00:18:32.224Z,27.66
2022-08-20T00:19:02.824Z,28.09
2022-08-20T00:19:33.399Z,28.41
2022-08-20T00:20:03.955Z,27.29
2022-08-20T00:20:34.520Z,27.98
2022-08-20T00:21:05.067Z,27.66
2022-08-20T00:21:35.630Z,27.98
2022-08-20T00:22:06.237Z,28.36
2022-08-20T00:23:10.302Z,28.41
2022-08-20T00:23:38.612Z,27.98
2022-08-20T00:24:09.188Z,28.04
2022-08-20T00:24:39.756Z,28.31
2022-08-20T00:25:10.330Z,27.29
2022-08-20T00:25:40.902Z,27.71
2022-08-20T00:26:11.428Z,28.04
2022-08-20T00:26:52.364Z,27.29
2022-08-20T00:27:12.729Z,28.04
2022-08-20T00:27:43.295Z,27.98
2022-08-20T00:28:13.868Z,27.98
2022-08-20T00:28:44.459Z,27.66
2022-08-20T00:29:15.029Z,28.14
2022-08-20T00:29:45.754Z,28.09
2022-08-20T00:30:16.327Z,27.34
2022-08-20T00:30:46.920Z,28.04
2022-08-20T00:31:17.498Z,28.04
2022-08-20T00:31:48.044Z,27.66
2022-08-20T00:32:18.613Z,27.66
2022-08-20T00:32:49.150Z,28.25
2022-08-20T00:33:19.760Z,27.93
2022-08-20T00:33:50.345Z,27.29
2022-08-20T00:34:20.911Z,27.29
2022-08-20T00:34:51.500Z,26.80
2022-08-20T00:35:22.074Z,27.98
2022-08-20T00:35:52.652Z,27.55
2022-08-20T00:36:32.562Z,27.98
2022-08-20T00:36:54.014Z,27.29
2022-08-20T00:37:24.579Z,28.31
2022-08-20T00:37:58.684Z,27.66
2022-08-20T00:38:25.923Z,27.29
2022-08-20T00:38:56.478Z,27.23
2022-08-20T00:39:27.047Z,27.66
2022-08-20T00:39:57.672Z,27.66
2022-08-20T00:40:28.236Z,27.55
2022-08-20T00:40:58.813Z,27.29
2022-08-20T00:41:29.382Z,27.88
2022-08-20T00:41:59.962Z,27.93
2022-08-20T00:42:30.497Z,27.61
2022-08-20T00:43:01.064Z,27.61
2022-08-20T00:43:31.592Z,27.66
2022-08-20T00:44:02.166Z,26.86
2022-08-20T00:44:33.045Z,26.69
2022-08-20T00:45:03.608Z,27.93
2022-08-20T00:45:34.184Z,27.93
2022-08-20T00:46:04.711Z,27.61
2022-08-20T00:46:35.282Z,27.61
2022-08-20T00:47:05.833Z,27.61
2022-08-20T00:47:36.404Z,26.86
2022-08-20T00:48:06.984Z,26.69
2022-08-20T00:48:37.558Z,27.55
2022-08-20T00:49:08.138Z,27.61
2022-08-20T00:49:38.710Z,26.69
2022-08-20T00:50:09.243Z,27.98
2022-08-20T00:50:39.811Z,27.02
2022-08-20T00:51:10.396Z,26.69
2022-08-20T00:51:40.953Z,27.98
2022-08-20T00:52:11.527Z,26.80
2022-08-20T00:52:42.069Z,27.34
2022-08-20T00:53:12.843Z,26.96
2022-08-20T00:53:43.410Z,27.34
2022-08-20T00:54:13.988Z,27.29
2022-08-20T00:54:44.522Z,27.45
2022-08-20T00:55:15.103Z,27.55
2022-08-20T00:55:45.662Z,27.34
2022-08-20T00:56:16.243Z,27.34
2022-08-20T00:56:46.821Z,27.02
2022-08-20T00:57:17.383Z,27.50
2022-08-20T00:58:00.439Z,27.02
2022-08-20T00:58:18.708Z,27.61
2022-08-20T00:58:49.282Z,27.29
2022-08-20T00:59:19.808Z,27.23
2022-08-20T00:59:50.374Z,27.29
2022-08-20T01:00:20.933Z,27.61
2022-08-20T01:00:51.889Z,27.34
2022-08-20T01:01:22.479Z,26.59
2022-08-20T01:01:56.185Z,27.29
2022-08-20T01:02:23.832Z,26.37
2022-08-20T01:02:54.413Z,26.75
2022-08-20T01:03:24.976Z,26.80
2022-08-20T01:03:55.540Z,26.69
2022-08-20T01:04:26.091Z,27.34
2022-08-20T01:04:56.624Z,26.86
2022-08-20T01:05:29.426Z,26.59
2022-08-20T01:05:58.182Z,26.69
2022-08-20T01:06:28.749Z,26.75
2022-08-20T01:06:59.298Z,27.07
2022-08-20T01:07:29.874Z,27.55
2022-08-20T01:08:00.449Z,27.34
2022-08-20T01:08:31.014Z,27.29
2022-08-20T01:09:01.565Z,27.02
2022-08-20T01:09:49.820Z,27.07
2022-08-20T01:10:02.910Z,26.64
2022-08-20T01:10:33.484Z,26.69
2022-08-20T01:11:04.028Z,26.43
2022-08-20T01:11:36.982Z,26.75
2022-08-20T01:12:05.411Z,27.55
2022-08-20T01:12:35.958Z,27.02
2022-08-20T01:13:06.522Z,26.75
2022-08-20T01:13:37.098Z,26.64
2022-08-20T01:14:07.642Z,27.29
2022-08-20T01:14:38.176Z,27.02
2022-08-20T01:15:08.707Z,26.80
2022-08-20T01:15:43.010Z,27.12
2022-08-20T01:16:09.891Z,27.34
2022-08-20T01:16:40.672Z,26.53
2022-08-20T01:17:12.803Z,26.96
2022-08-20T01:17:42.315Z,27.07
2022-08-20T01:18:12.862Z,25.94
2022-08-20T01:18:43.400Z,26.59
2022-08-20T01:19:30.077Z,25.89
2022-08-20T01:19:44.743Z,26.48
2022-08-20T01:20:15.297Z,26.26
2022-08-20T01:20:45.867Z,27.02
2022-08-20T01:21:16.445Z,27.34
2022-08-20T01:21:49.757Z,25.94
2022-08-20T01:22:17.752Z,26.32
2022-08-20T01:22:48.314Z,26.69
2022-08-20T01:23:18.891Z,26.53
2022-08-20T01:23:49.456Z,26.37
2022-08-20T01:24:19.979Z,26.64
2022-08-20T01:24:50.527Z,26.26
2022-08-20T01:25:21.067Z,26.59
2022-08-20T01:25:51.784Z,26.32
2022-08-20T01:26:22.358Z,26.69
2022-08-20T01:26:52.918Z,27.02
2022-08-20T01:27:23.466Z,26.37
2022-08-20T01:27:55.478Z,27.02
2022-08-20T01:28:25.334Z,27.07
2022-08-20T01:28:55.920Z,27.07
2022-08-20T01:29:26.512Z,26.80
2022-08-20T01:29:57.077Z,26.26
2022-08-20T01:30:27.600Z,26.26
2022-08-20T01:30:58.171Z,26.69
2022-08-20T01:31:28.747Z,27.02
2022-08-20T01:31:59.348Z,26.21
2022-08-20T01:32:29.896Z,26.80
2022-08-20T01:33:00.474Z,27.02
2022-08-20T01:33:31.035Z,26.69
2022-08-20T01:34:01.620Z,26.00
2022-08-20T01:34:32.200Z,26.64
2022-08-20T01:35:02.753Z,26.91
2022-08-20T01:35:33.412Z,26.96
2022-08-20T01:36:03.939Z,26.64
2022-08-20T01:36:34.525Z,26.26
2022-08-20T01:37:05.093Z,27.02
2022-08-20T01:37:35.695Z,26.86
2022-08-20T01:38:06.277Z,26.26
2022-08-20T01:38:36.828Z,26.69
2022-08-20T01:39:07.398Z,26.16
2022-08-20T01:39:37.996Z,26.64
2022-08-20T01:40:09.344Z,26.21
2022-08-20T01:40:39.445Z,26.53
2022-08-20T01:41:09.993Z,26.75
2022-08-20T01:41:40.563Z,26.32
2022-08-20T01:42:11.109Z,26.96
2022-08-20T01:42:52.806Z,26.69
2022-08-20T01:43:12.458Z,26.75
2022-08-20T01:43:43.420Z,26.59
2022-08-20T01:44:16.990Z,25.94
2022-08-20T01:44:45.021Z,26.05
2022-08-20T01:45:15.842Z,26.32
2022-08-20T01:45:46.534Z,26.69
2022-08-20T01:46:17.185Z,26.59
2022-08-20T01:46:48.217Z,26.80
2022-08-20T01:47:19.149Z,26.59
2022-08-20T01:47:49.825Z,26.48
2022-08-20T01:48:20.780Z,25.41
2022-08-20T01:48:51.327Z,25.94
2022-08-20T01:49:23.210Z,26.37
2022-08-20T01:49:52.536Z,25.35
2022-08-20T01:50:23.093Z,26.26
2022-08-20T01:50:53.643Z,26.32
2022-08-20T01:51:24.229Z,25.35
2022-08-20T01:51:54.805Z,25.62
2022-08-20T01:52:25.325Z,26.53
2022-08-20T01:52:55.896Z,25.73
2022-08-20T01:53:26.486Z,25.35
2022-08-20T01:53:57.041Z,25.94
2022-08-20T01:54:27.623Z,26.21
2022-08-20T01:54:58.179Z,25.57
2022-08-20T01:55:28.699Z,25.62
2022-08-20T01:55:59.255Z,26.37
2022-08-20T01:56:29.834Z,25.35
2022-08-20T01:57:00.388Z,25.89
2022-08-20T01:57:30.982Z,26.26
2022-08-20T01:58:01.566Z,26.64
2022-08-20T01:58:32.135Z,24.98
2022-08-20T01:59:02.697Z,25.30
2022-08-20T01:59:33.275Z,26.69
2022-08-20T02:00:03.856Z,25.62
2022-08-20T02:00:34.398Z,26.64
2022-08-20T02:01:04.946Z,25.35
2022-08-20T02:01:46.484Z,26.05
2022-08-20T02:02:06.261Z,26.64
2022-08-20T02:02:36.824Z,25.94
2022-08-20T02:03:07.356Z,26.48
2022-08-20T02:03:41.825Z,25.89
2022-08-20T02:04:08.719Z,26.37
2022-08-20T02:04:39.505Z,26.05
2022-08-20T02:05:10.087Z,25.62
2022-08-20T02:05:40.670Z,26.48
2022-08-20T02:06:11.227Z,25.94
2022-08-20T02:06:41.771Z,26.21
2022-08-20T02:07:12.555Z,25.41
2022-08-20T02:07:43.130Z,26.26
2022-08-20T02:08:13.683Z,25.51
2022-08-20T02:08:44.271Z,26.59
2022-08-20T02:09:16.265Z,25.67
2022-08-20T02:09:45.802Z,26.00
2022-08-20T02:10:16.371Z,26.10
2022-08-20T02:10:46.934Z,25.62
2022-08-20T02:11:17.489Z,24.98
2022-08-20T02:11:48.048Z,25.35
2022-08-20T02:12:18.633Z,25.03
2022-08-20T02:12:49.184Z,25.41
2022-08-20T02:13:19.707Z,26.16
2022-08-20T02:13:50.261Z,24.98
2022-08-20T02:14:20.839Z,25.19
2022-08-20T02:14:51.413Z,26.10
2022-08-20T02:15:34.669Z,24.98
2022-08-20T02:15:52.721Z,25.35
2022-08-20T02:16:23.277Z,25.30
2022-08-20T02:16:54.953Z,26.26
2022-08-20T02:17:24.618Z,26.21
2022-08-20T02:17:55.409Z,25.24
2022-08-20T02:18:26.027Z,25.67
2022-08-20T02:18:56.593Z,25.89
2022-08-20T02:19:27.125Z,26.21
2022-08-20T02:19:57.694Z,25.94
2022-08-20T02:20:28.244Z,25.14
2022-08-20T02:20:58.765Z,26.21
2022-08-20T02:21:29.347Z,26.21
2022-08-20T02:21:59.972Z,26.00
2022-08-20T02:22:30.507Z,26.21
2022-08-20T02:23:01.077Z,26.21
2022-08-20T02:23:31.620Z,25.30
2022-08-20T02:24:02.179Z,25.35
2022-08-20T02:24:32.771Z,25.35
2022-08-20T02:25:03.312Z,25.62
2022-08-20T02:25:33.869Z,25.35
2022-08-20T02:26:04.416Z,25.19
2022-08-20T02:26:34.991Z,24.98
2022-08-20T02:27:05.522Z,25.24
2022-08-20T02:27:36.082Z,25.24
2022-08-20T02:28:06.650Z,26.26
2022-08-20T02:28:37.235Z,25.73
2022-08-20T02:29:07.824Z,26.21
2022-08-20T02:29:38.366Z,25.30
2022-08-20T02:30:08.931Z,25.30
2022-08-20T02:30:39.475Z,25.46
2022-08-20T02:31:10.019Z,25.24
2022-08-20T02:32:23.444Z,25.41
2022-08-20T02:32:24.773Z,24.81
2022-08-20T02:32:42.183Z,24.71
2022-08-20T02:33:12.747Z,24.92
2022-08-20T02:33:43.314Z,25.67
2022-08-20T02:34:21.633Z,25.24
2022-08-20T02:34:44.866Z,25.35
2022-08-20T02:35:15.438Z,25.51
2022-08-20T02:35:46.009Z,25.67
2022-08-20T02:36:16.591Z,25.24
2022-08-20T02:36:47.137Z,25.24
2022-08-20T02:37:17.687Z,25.35
2022-08-20T02:37:48.268Z,24.81
2022-08-20T02:38:18.855Z,25.30
2022-08-20T02:38:49.379Z,25.19
2022-08-20T02:39:19.931Z,25.62
2022-08-20T02:39:50.517Z,25.62
2022-08-20T02:40:27.464Z,25.41
2022-08-20T02:40:51.868Z,24.87
2022-08-20T02:41:22.443Z,25.67
2022-08-20T02:41:53.010Z,25.57
2022-08-20T02:42:23.532Z,25.35
2022-08-20T02:42:54.070Z,24.98
2022-08-20T02:43:24.615Z,24.60
2022-08-20T02:43:55.167Z,25.03
2022-08-20T02:44:25.735Z,24.87
2022-08-20T02:44:56.310Z,24.87
2022-08-20T02:45:26.853Z,25.24
2022-08-20T02:45:57.440Z,24.60
2022-08-20T02:46:27.972Z,25.51
2022-08-20T02:46:58.533Z,25.41
2022-08-20T02:47:29.096Z,24.92
2022-08-20T02:47:59.629Z,25.57
2022-08-20T02:48:30.256Z,24.65
2022-08-20T02:49:00.785Z,25.35
2022-08-20T02:49:31.355Z,25.67
2022-08-20T02:50:01.934Z,25.41
2022-08-20T02:50:32.714Z,24.87
2022-08-20T02:51:03.288Z,25.35
2022-08-20T02:51:33.808Z,25.35
2022-08-20T02:52:04.370Z,25.30
2022-08-20T02:52:34.954Z,25.57
2022-08-20T02:53:05.489Z,24.92
2022-08-20T02:53:36.052Z,25.30
2022-08-20T02:54:06.582Z,25.46
2022-08-20T02:54:37.139Z,24.55
2022-08-20T02:55:07.701Z,25.14
2022-08-20T02:55:38.420Z,24.87
2022-08-20T02:56:08.989Z,25.35
2022-08-20T02:56:39.517Z,24.87
2022-08-20T02:57:10.102Z,24.60
2022-08-20T02:57:40.646Z,24.98
2022-08-20T02:58:11.192Z,24.60
2022-08-20T02:58:41.799Z,24.38
2022-08-20T02:59:12.511Z,24.98
2022-08-20T02:59:43.160Z,24.55
2022-08-20T03:00:13.715Z,24.92
2022-08-20T03:00:44.254Z,24.81
2022-08-20T03:01:14.823Z,24.01
2022-08-20T03:01:45.397Z,24.65
2022-08-20T03:02:15.941Z,24.92
2022-08-20T03:02:46.502Z,25.03
2022-08-20T03:03:17.055Z,24.87
2022-08-20T03:03:47.613Z,25.14
2022-08-20T03:04:18.185Z,24.60
2022-08-20T03:04:48.712Z,25.30
2022-08-20T03:05:19.288Z,25.24
2022-08-20T03:05:49.845Z,25.14
2022-08-20T03:06:20.422Z,24.92
2022-08-20T03:06:50.992Z,25.03
2022-08-20T03:07:21.874Z,24.98
2022-08-20T03:07:52.472Z,24.87
2022-08-20T03:08:23.010Z,24.71
2022-08-20T03:08:53.565Z,24.92
2022-08-20T03:09:24.101Z,24.60
2022-08-20T03:09:54.673Z,25.30
2022-08-20T03:10:25.223Z,24.98
2022-08-20T03:10:55.803Z,25.24
2022-08-20T03:11:26.375Z,24.28
2022-08-20T03:11:56.959Z,24.33
2022-08-20T03:12:27.514Z,24.28
2022-08-20T03:12:58.062Z,25.24
2022-08-20T03:13:28.599Z,24.55
2022-08-20T03:13:59.166Z,23.90
2022-08-20T03:14:29.692Z,24.60
2022-08-20T03:15:00.241Z,24.98
2022-08-20T03:15:30.785Z,25.03
2022-08-20T03:16:01.374Z,24.17
2022-08-20T03:16:31.931Z,24.33
2022-08-20T03:17:02.464Z,24.06
2022-08-20T03:17:33.024Z,24.98
2022-08-20T03:18:03.594Z,24.65
2022-08-20T03:18:34.143Z,24.01
2022-08-20T03:19:04.704Z,24.87
2022-08-20T03:19:35.295Z,24.87
2022-08-20T03:20:05.862Z,25.14
2022-08-20T03:20:36.406Z,24.92
2022-08-20T03:21:07.287Z,24.01
2022-08-20T03:21:37.846Z,24.06
2022-08-20T03:22:08.416Z,24.28
2022-08-20T03:22:38.987Z,24.17
2022-08-20T03:23:09.511Z,24.28
2022-08-20T03:23:40.422Z,24.87
2022-08-20T03:24:11.069Z,25.30
2022-08-20T03:24:41.669Z,24.65
2022-08-20T03:25:12.225Z,24.33
2022-08-20T03:25:42.792Z,24.76
2022-08-20T03:26:13.349Z,24.33
2022-08-20T03:26:43.887Z,23.96
2022-08-20T03:27:14.425Z,24.22
2022-08-20T03:27:44.959Z,23.63
2022-08-20T03:28:15.793Z,23.58
2022-08-20T03:28:46.356Z,24.28
2022-08-20T03:29:17.261Z,24.60
2022-08-20T03:29:47.826Z,24.38
2022-08-20T03:30:18.415Z,24.01
2022-08-20T03:30:48.970Z,23.58
2022-08-20T03:31:19.549Z,24.60
2022-08-20T03:31:50.112Z,24.92
2022-08-20T03:32:20.676Z,24.60
2022-08-20T03:32:51.264Z,24.01
2022-08-20T03:33:21.812Z,23.90
2022-08-20T03:33:53.333Z,24.60
2022-08-20T03:34:23.256Z,23.69
2022-08-20T03:34:53.824Z,24.55
2022-08-20T03:35:24.423Z,24.92
2022-08-20T03:35:55.043Z,23.96
2022-08-20T03:36:28.710Z,25.14
2022-08-20T03:36:56.451Z,24.87
2022-08-20T03:37:27.022Z,23.90
2022-08-20T03:37:57.783Z,24.55
2022-08-20T03:38:33.234Z,24.60
2022-08-20T03:38:59.182Z,24.06
2022-08-20T03:39:29.708Z,24.92
2022-08-20T03:40:00.437Z,23.85
2022-08-20T03:40:31.085Z,23.58
2022-08-20T03:41:01.624Z,24.87
2022-08-20T03:41:32.191Z,24.65
2022-08-20T03:42:02.732Z,24.22
2022-08-20T03:42:33.283Z,24.12
2022-08-20T03:43:03.809Z,24.60
2022-08-20T03:43:34.357Z,24.33
2022-08-20T03:44:04.885Z,24.87
2022-08-20T03:44:35.426Z,23.63
2022-08-20T03:45:06.025Z,24.33
2022-08-20T03:45:36.628Z,24.01
2022-08-20T03:46:07.183Z,23.96
2022-08-20T03:46:37.973Z,25.30
2022-08-20T03:47:08.538Z,24.17
2022-08-20T03:47:39.101Z,25.19
2022-08-20T03:48:09.663Z,24.98
2022-08-20T03:48:40.190Z,24.60
2022-08-20T03:49:10.750Z,25.14
2022-08-20T03:49:41.315Z,24.12
2022-08-20T03:50:14.769Z,24.28
2022-08-20T03:50:42.647Z,26.21
2022-08-20T03:51:13.216Z,24.98
2022-08-20T03:51:57.466Z,25.19
2022-08-20T03:52:14.553Z,25.14
2022-08-20T03:52:45.141Z,25.03
2022-08-20T03:53:15.678Z,24.98
2022-08-20T03:53:46.229Z,26.16
2022-08-20T03:54:16.805Z,25.03
2022-08-20T03:54:47.358Z,25.19
2022-08-20T03:55:17.926Z,25.35
2022-08-20T03:55:53.844Z,25.24
2022-08-20T03:56:19.268Z,25.03
2022-08-20T03:56:49.794Z,24.98
2022-08-20T03:57:20.379Z,24.98
2022-08-20T03:57:50.936Z,25.62
2022-08-20T03:58:21.464Z,24.92
2022-08-20T03:58:52.233Z,24.87
2022-08-20T03:59:22.827Z,25.30
2022-08-20T03:59:58.162Z,25.57
2022-08-20T04:00:24.096Z,25.35
2022-08-20T04:00:55.141Z,25.67
2022-08-20T04:01:45.285Z,25.57
2022-08-20T04:01:56.450Z,25.14
2022-08-20T04:02:26.944Z,25.62
2022-08-20T04:02:57.949Z,24.92
2022-08-20T04:03:28.936Z,25.19
2022-08-20T04:03:59.997Z,24.92
2022-08-20T04:04:30.583Z,25.14
2022-08-20T04:05:01.111Z,24.60
2022-08-20T04:05:32.117Z,25.30
2022-08-20T04:06:03.147Z,25.19
2022-08-20T04:06:34.160Z,25.24
2022-08-20T04:07:05.160Z,25.67
2022-08-20T04:07:36.178Z,25.67
2022-08-20T04:08:07.216Z,25.03
2022-08-20T04:08:37.733Z,25.24
2022-08-20T04:09:09.748Z,25.67
2022-08-20T04:09:39.350Z,25.67
2022-08-20T04:10:10.407Z,25.41
2022-08-20T04:10:40.910Z,25.67
2022-08-20T04:11:11.926Z,25.62
2022-08-20T04:11:42.446Z,24.92
2022-08-20T04:12:13.479Z,25.30
2022-08-20T04:12:53.050Z,25.30
2022-08-20T04:13:15.248Z,25.03
2022-08-20T04:13:46.218Z,25.67
2022-08-20T04:14:18.601Z,25.41
2022-08-20T04:14:47.946Z,25.57
2022-08-20T04:15:18.964Z,25.24
2022-08-20T04:15:49.976Z,26.00
2022-08-20T04:16:20.793Z,25.03
2022-08-20T04:16:51.830Z,25.41
2022-08-20T04:17:22.854Z,26.00
2022-08-20T04:17:53.888Z,25.62
2022-08-20T04:18:24.455Z,25.03
2022-08-20T04:18:58.594Z,25.35
2022-08-20T04:19:25.695Z,25.24
2022-08-20T04:19:56.217Z,26.00
2022-08-20T04:20:27.210Z,26.00
2022-08-20T04:20:58.208Z,25.94
2022-08-20T04:21:30.946Z,24.60
2022-08-20T04:22:00.062Z,24.76
2022-08-20T04:22:30.592Z,24.87
2022-08-20T04:23:01.610Z,25.30
2022-08-20T04:23:32.670Z,25.35
2022-08-20T04:24:03.157Z,24.92
2022-08-20T04:24:34.185Z,25.57
2022-08-20T04:25:05.212Z,25.51
2022-08-20T04:25:36.333Z,24.87
2022-08-20T04:26:06.944Z,25.35
2022-08-20T04:26:37.418Z,25.67
2022-08-20T04:27:07.936Z,24.92
2022-08-20T04:27:38.976Z,24.81
2022-08-20T04:28:09.979Z,25.62
2022-08-20T04:28:41.001Z,25.46
2022-08-20T04:29:12.011Z,25.30
2022-08-20T04:29:43.085Z,25.51
2022-08-20T04:30:13.598Z,25.19
2022-08-20T04:30:51.714Z,24.55
2022-08-20T04:31:15.365Z,24.65
2022-08-20T04:31:46.369Z,25.67
2022-08-20T04:32:17.378Z,25.24
2022-08-20T04:32:47.928Z,24.76
2022-08-20T04:33:19.211Z,25.03
2022-08-20T04:33:49.682Z,24.92
2022-08-20T04:34:20.226Z,25.24
2022-08-20T04:34:50.751Z,24.76
2022-08-20T04:35:21.276Z,25.19
2022-08-20T04:35:52.309Z,25.62
2022-08-20T04:36:23.302Z,25.08
2022-08-20T04:36:54.347Z,24.92
2022-08-20T04:37:24.865Z,25.62
2022-08-20T04:37:56.115Z,24.65
2022-08-20T04:38:26.681Z,24.98
2022-08-20T04:38:57.411Z,25.62
2022-08-20T04:39:28.410Z,25.62
2022-08-20T04:39:59.470Z,25.30
2022-08-20T04:40:29.978Z,24.60
2022-08-20T04:41:00.507Z,24.55
2022-08-20T04:41:31.530Z,25.67
2022-08-20T04:42:02.550Z,24.87
2022-08-20T04:42:33.063Z,24.49
2022-08-20T04:43:03.666Z,24.92
2022-08-20T04:43:34.701Z,24.92
2022-08-20T04:44:05.716Z,25.62
2022-08-20T04:44:36.261Z,24.65
2022-08-20T04:45:07.274Z,25.19
2022-08-20T04:45:38.298Z,25.35
2022-08-20T04:46:08.807Z,24.55
2022-08-20T04:46:39.818Z,25.19
2022-08-20T04:47:10.847Z,24.98
2022-08-20T04:47:41.651Z,24.87
2022-08-20T04:48:15.125Z,24.49
2022-08-20T04:48:48.750Z,25.24
2022-08-20T04:49:14.026Z,24.60
2022-08-20T04:49:44.551Z,24.55
2022-08-20T04:50:15.575Z,25.73
2022-08-20T04:50:46.099Z,24.60
2022-08-20T04:51:16.617Z,25.24
2022-08-20T04:51:47.652Z,24.92
2022-08-20T04:52:18.683Z,24.92
2022-08-20T04:52:49.204Z,24.98
2022-08-20T04:53:25.257Z,24.01
2022-08-20T04:53:53.259Z,24.60
2022-08-20T04:54:21.722Z,25.46
2022-08-20T04:54:52.239Z,24.60
2022-08-20T04:55:23.233Z,24.98
2022-08-20T04:55:54.268Z,24.01
2022-08-20T04:56:25.295Z,24.87
2022-08-20T04:56:55.814Z,24.33
2022-08-20T04:57:26.809Z,24.06
2022-08-20T04:57:57.793Z,24.17
2022-08-20T04:58:28.355Z,25.30
2022-08-20T04:58:58.880Z,24.98
2022-08-20T04:59:29.916Z,25.30
2022-08-20T05:00:00.937Z,24.87
2022-08-20T05:00:32.002Z,24.33
2022-08-20T05:01:02.570Z,23.58
2022-08-20T05:01:33.264Z,24.76
2022-08-20T05:02:03.801Z,23.26
2022-08-20T05:02:34.796Z,23.20
2022-08-20T05:03:05.794Z,23.85
2022-08-20T05:03:36.787Z,23.58
2022-08-20T05:04:07.831Z,23.58
2022-08-20T05:04:38.350Z,24.87
2022-08-20T05:05:09.382Z,24.81
2022-08-20T05:05:40.398Z,23.63
2022-08-20T05:06:10.934Z,23.58
2022-08-20T05:06:41.435Z,23.74
2022-08-20T05:07:12.453Z,23.69
2022-08-20T05:07:42.983Z,23.79
2022-08-20T05:08:19.593Z,23.85
2022-08-20T05:08:44.732Z,24.33
2022-08-20T05:09:15.743Z,24.28
2022-08-20T05:09:46.790Z,23.63
2022-08-20T05:10:17.814Z,24.33
2022-08-20T05:10:48.835Z,24.28
2022-08-20T05:11:35.306Z,24.17
2022-08-20T05:11:50.074Z,23.85
2022-08-20T05:12:21.085Z,23.58
2022-08-20T05:12:53.778Z,24.28
2022-08-20T05:13:27.141Z,24.60
2022-08-20T05:13:53.796Z,24.92
2022-08-20T05:14:24.331Z,24.12
2022-08-20T05:14:54.841Z,23.96
2022-08-20T05:15:25.357Z,24.12
2022-08-20T05:15:56.385Z,23.58
2022-08-20T05:16:27.392Z,23.58
2022-08-20T05:16:58.436Z,23.96
2022-08-20T05:17:28.955Z,25.30
2022-08-20T05:17:59.999Z,25.24
2022-08-20T05:18:31.057Z,25.19
2022-08-20T05:19:01.546Z,24.92
2022-08-20T05:19:37.019Z,25.24
2022-08-20T05:20:03.281Z,24.87
2022-08-20T05:20:33.845Z,24.06
2022-08-20T05:21:04.358Z,24.33
2022-08-20T05:21:35.390Z,24.98
2022-08-20T05:22:06.402Z,24.55
2022-08-20T05:22:36.907Z,24.98
2022-08-20T05:23:07.900Z,24.06
2022-08-20T05:23:38.918Z,25.35
2022-08-20T05:24:09.941Z,24.98
2022-08-20T05:24:40.457Z,24.12
2022-08-20T05:25:11.480Z,25.30
2022-08-20T05:25:41.993Z,24.22
2022-08-20T05:26:12.995Z,24.81
2022-08-20T05:26:44.011Z,25.30
2022-08-20T05:27:24.559Z,24.28
2022-08-20T05:27:47.831Z,24.28
2022-08-20T05:28:16.314Z,24.12
2022-08-20T05:28:54.104Z,24.92
2022-08-20T05:29:18.065Z,24.06
2022-08-20T05:29:48.591Z,24.92
2022-08-20T05:30:19.621Z,25.03
2022-08-20T05:30:50.142Z,24.33
2022-08-20T05:31:21.196Z,24.92
2022-08-20T05:31:52.198Z,24.17
2022-08-20T05:32:23.221Z,24.81
2022-08-20T05:32:54.263Z,24.92
2022-08-20T05:33:24.784Z,24.28
2022-08-20T05:33:55.289Z,24.12
2022-08-20T05:34:26.319Z,24.22
2022-08-20T05:34:57.376Z,24.01
2022-08-20T05:35:28.383Z,24.01
2022-08-20T05:35:59.414Z,24.17
2022-08-20T05:36:30.430Z,24.28
2022-08-20T05:37:00.950Z,24.76
2022-08-20T05:37:31.468Z,25.14
2022-08-20T05:38:02.340Z,25.24
2022-08-20T05:38:33.344Z,23.96
2022-08-20T05:39:03.864Z,24.06
2022-08-20T05:39:37.486Z,24.65
2022-08-20T05:40:05.622Z,25.08
2022-08-20T05:40:36.124Z,24.28
2022-08-20T05:41:07.130Z,24.01
2022-08-20T05:41:38.173Z,24.01
2022-08-20T05:42:08.714Z,24.92
2022-08-20T05:42:39.220Z,25.08
2022-08-20T05:43:10.247Z,24.01
2022-08-20T05:43:41.256Z,24.81
2022-08-20T05:44:11.787Z,24.22
2022-08-20T05:44:42.789Z,24.28
2022-08-20T05:45:13.308Z,24.92
2022-08-20T05:45:43.821Z,24.98
2022-08-20T05:46:14.829Z,24.98
2022-08-20T05:46:45.354Z,24.12
2022-08-20T05:47:16.352Z,24.76
2022-08-20T05:47:47.347Z,24.87
2022-08-20T05:48:18.094Z,24.12
2022-08-20T05:48:49.094Z,24.28
2022-08-20T05:49:20.169Z,23.96
2022-08-20T05:49:50.670Z,23.90
2022-08-20T05:50:23.518Z,24.28
2022-08-20T05:50:52.546Z,24.28
2022-08-20T05:51:23.068Z,24.60
2022-08-20T05:51:54.100Z,25.24
2022-08-20T05:52:25.126Z,24.06
2022-08-20T05:52:56.142Z,24.28
2022-08-20T05:53:27.145Z,24.44
2022-08-20T05:53:59.599Z,24.06
2022-08-20T05:54:28.197Z,24.28
2022-08-20T05:54:59.223Z,23.96
2022-08-20T05:55:30.251Z,24.76
2022-08-20T05:56:01.276Z,23.90
2022-08-20T05:56:32.296Z,24.28
2022-08-20T05:57:03.347Z,25.24
2022-08-20T05:57:34.364Z,23.96
2022-08-20T05:58:04.902Z,24.76
2022-08-20T05:58:35.426Z,24.98
2022-08-20T05:59:06.450Z,25.24
2022-08-20T05:59:36.966Z,23.90
2022-08-20T06:00:07.971Z,24.22
2022-08-20T06:00:38.494Z,24.60
2022-08-20T06:01:09.568Z,25.62
2022-08-20T06:01:40.173Z,24.60
2022-08-20T06:02:10.688Z,24.33
2022-08-20T06:02:41.685Z,24.87
2022-08-20T06:03:12.678Z,24.17
2022-08-20T06:03:43.702Z,23.85
2022-08-20T06:04:14.757Z,24.28
2022-08-20T06:04:45.251Z,23.96
2022-08-20T06:05:16.266Z,24.33
2022-08-20T06:05:46.773Z,23.96
2022-08-20T06:06:20.694Z,23.96
2022-08-20T06:06:48.488Z,23.90
2022-08-20T06:07:19.495Z,23.74
2022-08-20T06:07:50.023Z,22.88
2022-08-20T06:08:20.560Z,23.20
2022-08-20T06:08:51.567Z,22.67
2022-08-20T06:09:30.607Z,23.85
2022-08-20T06:09:53.319Z,23.42
2022-08-20T06:10:24.379Z,23.63
2022-08-20T06:10:54.893Z,24.01
2022-08-20T06:11:25.419Z,23.47
2022-08-20T06:11:59.157Z,23.63
2022-08-20T06:12:27.316Z,24.33
2022-08-20T06:12:57.842Z,23.63
2022-08-20T06:13:28.876Z,23.69
2022-08-20T06:13:59.900Z,23.85
2022-08-20T06:14:30.901Z,24.28
2022-08-20T06:15:01.420Z,24.01
2022-08-20T06:15:32.435Z,24.17
2022-08-20T06:16:03.185Z,25.08
2022-08-20T06:16:34.236Z,23.63
2022-08-20T06:17:05.320Z,24.76
2022-08-20T06:17:39.457Z,24.81
2022-08-20T06:18:13.005Z,23.58
2022-08-20T06:18:37.263Z,24.12
2022-08-20T06:19:10.309Z,24.17
2022-08-20T06:19:38.804Z,24.01
2022-08-20T06:20:09.828Z,24.17
2022-08-20T06:20:40.519Z,24.12
2022-08-20T06:21:11.022Z,23.96
2022-08-20T06:21:41.612Z,24.33
2022-08-20T06:22:20.635Z,24.65
2022-08-20T06:22:42.882Z,23.58
2022-08-20T06:23:13.457Z,23.58
2022-08-20T06:23:57.509Z,23.90
2022-08-20T06:24:15.218Z,24.12
2022-08-20T06:24:46.226Z,23.58
2022-08-20T06:25:16.748Z,23.58
2022-08-20T06:25:47.274Z,23.74
2022-08-20T06:26:29.913Z,24.38
2022-08-20T06:26:49.017Z,24.87
2022-08-20T06:27:19.549Z,24.17
2022-08-20T06:27:50.131Z,23.63
2022-08-20T06:28:20.689Z,24.60
2022-08-20T06:28:54.167Z,24.06
2022-08-20T06:29:22.658Z,24.55
2022-08-20T06:29:53.709Z,23.63
2022-08-20T06:30:24.215Z,23.85
2022-08-20T06:30:55.250Z,24.65
2022-08-20T06:31:26.283Z,24.01
2022-08-20T06:31:57.312Z,24.22
2022-08-20T06:32:32.679Z,23.58
2022-08-20T06:32:59.229Z,23.85
2022-08-20T06:33:29.742Z,23.58
2022-08-20T06:34:00.774Z,23.90
2022-08-20T06:34:31.294Z,24.76
2022-08-20T06:35:01.817Z,24.28
2022-08-20T06:35:32.842Z,24.22